createdAt,value
2023-02-21T00:00:37.494Z,10.28
2023-02-21T00:03:58.801Z,10.13
2023-02-21T00:07:19.909Z,10.57
2023-02-21T00:10:41.068Z,10.50
2023-02-21T00:14:02.247Z,10.63
2023-02-21T00:17:23.292Z,10.56
2023-02-21T00:20:45.141Z,10.46
2023-02-21T00:24:06.351Z,10.69
2023-02-21T00:27:27.116Z,10.80
2023-02-21T00:30:48.039Z,10.56
2023-02-21T00:34:09.229Z,10.29
2023-02-21T00:37:30.180Z,10.33
2023-02-21T00:40:51.254Z,10.07
2023-02-21T00:44:12.128Z,9.89
2023-02-21T00:47:33.030Z,9.97
2023-02-21T00:50:54.371Z,10.06
2023-02-21T00:54:15.350Z,9.71
2023-02-21T00:57:36.981Z,9.68
2023-02-21T01:00:58.124Z,9.73
2023-02-21T01:04:19.907Z,9.93
2023-02-21T01:07:40.736Z,9.91
2023-02-21T01:11:03.544Z,10.10
2023-02-21T01:14:28.161Z,10.00
2023-02-21T01:17:49.562Z,10.08
2023-02-21T01:21:11.717Z,9.84
2023-02-21T01:24:34.429Z,9.63
2023-02-21T01:27:55.536Z,9.64
2023-02-21T01:31:18.676Z,9.51
2023-02-21T01:34:40.013Z,9.71
2023-02-21T01:38:01.421Z,9.68
2023-02-21T01:41:22.327Z,9.72
2023-02-21T01:44:59.282Z,9.76
2023-02-21T01:48:20.339Z,9.84
2023-02-21T01:51:45.377Z,9.84
2023-02-21T01:55:10.540Z,9.76
2023-02-21T01:58:32.044Z,9.83
2023-02-21T02:02:21.990Z,9.80
2023-02-21T02:05:45.644Z,9.91
2023-02-21T02:09:07.270Z,9.80
2023-02-21T02:12:29.170Z,9.76
2023-02-21T02:16:02.540Z,9.78
2023-02-21T02:19:25.687Z,9.82
2023-02-21T02:22:28.153Z,9.64
2023-02-21T02:25:39.614Z,9.46
2023-02-21T02:29:10.730Z,9.44
2023-02-21T02:32:44.305Z,9.34
2023-02-21T02:36:03.108Z,9.45
2023-02-21T02:39:25.190Z,9.33
2023-02-21T02:42:42.709Z,9.39
2023-02-21T02:45:57.174Z,9.61
2023-02-21T02:49:08.734Z,9.56
2023-02-21T02:52:11.556Z,9.53
2023-02-21T02:55:46.717Z,9.32
2023-02-21T02:59:04.566Z,9.31
2023-02-21T03:02:09.958Z,9.22
2023-02-21T03:05:39.765Z,9.20
2023-02-21T03:09:05.755Z,9.28
2023-02-21T03:12:13.996Z,9.26
2023-02-21T03:15:19.405Z,9.64
2023-02-21T03:18:43.743Z,9.41
2023-02-21T03:21:49.772Z,9.49
2023-02-21T03:24:54.378Z,9.59
2023-02-21T03:27:57.280Z,9.57
2023-02-21T03:31:05.730Z,9.75
2023-02-21T03:34:08.285Z,9.58
2023-02-21T03:37:20.323Z,9.87
2023-02-21T03:40:26.697Z,9.79
2023-02-21T03:43:29.491Z,9.84
2023-02-21T03:46:36.071Z,9.50
2023-02-21T03:49:38.669Z,9.37
2023-02-21T03:52:42.093Z,9.36
2023-02-21T03:55:45.343Z,9.37
2023-02-21T03:58:53.979Z,9.38
2023-02-21T04:01:56.626Z,9.46
2023-02-21T04:05:00.516Z,9.55
2023-02-21T04:08:03.480Z,9.61
2023-02-21T04:11:06.672Z,9.48
2023-02-21T04:14:10.897Z,9.56
2023-02-21T04:17:16.199Z,9.60
2023-02-21T04:20:19.749Z,9.92
2023-02-21T04:23:27.003Z,9.71
2023-02-21T04:26:30.340Z,9.79
2023-02-21T04:29:33.176Z,9.62
2023-02-21T04:32:35.897Z,9.54
2023-02-21T04:35:44.107Z,9.38
2023-02-21T04:38:56.954Z,9.40
2023-02-21T04:41:59.423Z,9.39
2023-02-21T04:45:02.120Z,9.28
2023-02-21T04:48:06.007Z,9.53
2023-02-21T04:51:15.757Z,9.39
2023-02-21T04:54:18.465Z,9.28
2023-02-21T04:57:20.889Z,9.44
2023-02-21T05:00:24.083Z,9.38
2023-02-21T05:03:26.506Z,9.37
2023-02-21T05:06:30.507Z,9.35
2023-02-21T05:09:32.965Z,9.35
2023-02-21T05:12:36.105Z,9.29
2023-02-21T05:15:38.507Z,9.35
2023-02-21T05:18:45.419Z,9.36
2023-02-21T05:21:47.873Z,9.34
2023-02-21T05:24:50.512Z,9.16
2023-02-21T05:27:53.865Z,9.11
2023-02-21T05:30:58.211Z,9.31
2023-02-21T05:34:03.947Z,9.49
2023-02-21T05:37:06.506Z,9.36
2023-02-21T05:40:12.891Z,9.49
2023-02-21T05:43:16.597Z,9.38
2023-02-21T05:46:31.764Z,9.32
2023-02-21T05:49:34.648Z,9.31
2023-02-21T05:52:37.216Z,9.28
2023-02-21T05:55:39.729Z,9.19
2023-02-21T05:58:42.627Z,9.29
2023-02-21T06:01:45.916Z,9.50
2023-02-21T06:04:49.057Z,9.64
2023-02-21T06:07:51.721Z,9.55
2023-02-21T06:10:54.353Z,9.68
2023-02-21T06:13:58.831Z,9.70
2023-02-21T06:17:02.766Z,9.71
2023-02-21T06:20:06.337Z,9.81
2023-02-21T06:23:10.892Z,9.84
2023-02-21T06:26:14.596Z,9.93
2023-02-21T06:29:17.219Z,9.94
2023-02-21T06:32:19.801Z,10.06
2023-02-21T06:35:22.353Z,10.08
2023-02-21T06:38:24.838Z,10.03
2023-02-21T06:41:31.501Z,10.04
2023-02-21T06:44:34.037Z,10.05
2023-02-21T06:47:36.700Z,10.14
2023-02-21T06:50:39.658Z,10.41
2023-02-21T06:53:42.800Z,10.54
2023-02-21T06:56:45.254Z,10.66
2023-02-21T06:59:47.983Z,10.55
2023-02-21T07:02:50.719Z,10.74
2023-02-21T07:05:54.274Z,10.86
2023-02-21T07:08:57.801Z,10.94
2023-02-21T07:12:00.796Z,11.16
2023-02-21T07:15:04.182Z,11.10
2023-02-21T07:18:06.670Z,11.03
2023-02-21T07:21:12.655Z,11.01
2023-02-21T07:24:15.483Z,11.08
2023-02-21T07:27:17.930Z,11.44
2023-02-21T07:30:20.946Z,11.56
2023-02-21T07:33:23.798Z,11.29
2023-02-21T07:36:26.390Z,11.21
2023-02-21T07:39:28.918Z,11.20
2023-02-21T07:42:31.641Z,11.12
2023-02-21T07:45:34.102Z,11.19
2023-02-21T07:48:36.970Z,11.12
2023-02-21T07:51:40.007Z,11.24
2023-02-21T07:54:42.512Z,11.29
2023-02-21T07:57:46.084Z,11.34
2023-02-21T08:00:48.730Z,11.41
2023-02-21T08:03:51.333Z,11.48
2023-02-21T08:07:02.308Z,11.54
2023-02-21T08:10:05.872Z,11.60
2023-02-21T08:13:09.303Z,11.70
2023-02-21T08:16:12.255Z,11.62
2023-02-21T08:19:14.933Z,11.71
2023-02-21T08:22:18.708Z,11.84
2023-02-21T08:25:21.466Z,11.97
2023-02-21T08:28:24.214Z,11.92
2023-02-21T08:31:27.630Z,12.02
2023-02-21T08:34:31.201Z,12.14
2023-02-21T08:37:36.380Z,12.16
2023-02-21T08:40:39.395Z,12.26
2023-02-21T08:43:42.059Z,12.28
2023-02-21T08:46:45.071Z,12.34
2023-02-21T08:49:48.879Z,12.38
2023-02-21T08:52:51.770Z,12.40
2023-02-21T08:55:54.287Z,12.44
2023-02-21T08:58:57.063Z,12.56
2023-02-21T09:02:01.501Z,12.55
2023-02-21T09:05:04.621Z,12.59
2023-02-21T09:08:10.400Z,12.81
2023-02-21T09:11:13.037Z,12.84
2023-02-21T09:14:16.868Z,12.63
2023-02-21T09:17:19.551Z,12.74
2023-02-21T09:20:25.020Z,12.95
2023-02-21T09:23:30.543Z,12.81
2023-02-21T09:26:33.157Z,12.96
2023-02-21T09:29:45.942Z,13.03
2023-02-21T09:32:51.298Z,13.00
2023-02-21T09:35:54.152Z,13.06
2023-02-21T09:38:59.001Z,12.91
2023-02-21T09:42:01.762Z,13.13
2023-02-21T09:45:04.899Z,13.12
2023-02-21T09:48:15.845Z,13.28
2023-02-21T09:51:18.827Z,13.28
2023-02-21T09:54:41.442Z,13.70
2023-02-21T09:57:44.017Z,14.11
2023-02-21T10:00:47.388Z,15.45
2023-02-21T10:04:33.237Z,15.97
2023-02-21T10:07:41.975Z,16.93
2023-02-21T10:10:53.672Z,17.14
2023-02-21T10:14:13.350Z,17.47
2023-02-21T10:17:23.274Z,17.59
2023-02-21T10:20:39.473Z,17.47
2023-02-21T10:23:46.969Z,18.74
2023-02-21T10:26:58.202Z,18.64
2023-02-21T10:30:05.686Z,19.51
2023-02-21T10:33:09.088Z,19.83
2023-02-21T10:36:14.221Z,19.79
2023-02-21T10:39:25.194Z,20.72
2023-02-21T10:42:35.678Z,22.09
2023-02-21T10:45:46.618Z,22.36
2023-02-21T10:48:53.798Z,21.64
2023-02-21T10:52:16.968Z,21.74
2023-02-21T10:55:32.386Z,22.64
2023-02-21T10:58:37.107Z,22.32
2023-02-21T11:01:44.978Z,21.86
2023-02-21T11:04:48.160Z,21.54
2023-02-21T11:08:06.280Z,23.31
2023-02-21T11:11:11.006Z,23.25
2023-02-21T11:14:23.124Z,23.00
2023-02-21T11:17:29.529Z,22.26
2023-02-21T11:20:32.940Z,22.54
2023-02-21T11:23:35.535Z,23.46
2023-02-21T11:26:47.642Z,23.95
2023-02-21T11:29:53.066Z,23.66
2023-02-21T11:32:58.056Z,24.42
2023-02-21T11:36:08.485Z,23.49
2023-02-21T11:39:16.467Z,23.18
2023-02-21T11:42:29.486Z,22.18
2023-02-21T11:45:34.252Z,23.32
2023-02-21T11:48:50.269Z,24.76
2023-02-21T11:52:04.925Z,24.42
2023-02-21T11:55:16.454Z,25.03
2023-02-21T11:58:42.532Z,25.41
2023-02-21T12:02:18.231Z,26.69
2023-02-21T12:05:33.470Z,27.93
2023-02-21T12:09:02.098Z,27.29
2023-02-21T12:12:04.524Z,26.67
2023-02-21T12:15:24.603Z,25.19
2023-02-21T12:18:33.115Z,26.57
2023-02-21T12:21:36.067Z,26.88
2023-02-21T12:24:44.290Z,28.46
2023-02-21T12:27:56.648Z,26.87
2023-02-21T12:31:09.370Z,23.66
2023-02-21T12:34:42.506Z,25.01
2023-02-21T12:38:13.708Z,22.95
2023-02-21T12:41:56.749Z,23.14
2023-02-21T12:45:37.317Z,27.38
2023-02-21T12:49:03.603Z,23.96
2023-02-21T12:52:19.662Z,26.25
2023-02-21T12:55:26.103Z,24.67
2023-02-21T12:58:33.412Z,23.37
2023-02-21T13:01:43.284Z,24.11
2023-02-21T13:05:05.367Z,23.14
2023-02-21T13:08:23.107Z,23.19
2023-02-21T13:11:43.067Z,23.95
2023-02-21T13:14:59.073Z,25.99
2023-02-21T13:18:07.518Z,25.70
2023-02-21T13:21:31.894Z,24.42
2023-02-21T13:25:01.672Z,25.72
2023-02-21T13:28:23.529Z,24.39
2023-02-21T13:31:28.966Z,23.04
2023-02-21T13:34:37.980Z,24.80
2023-02-21T13:37:46.481Z,23.80
2023-02-21T13:40:54.212Z,24.31
2023-02-21T13:43:58.285Z,23.52
2023-02-21T13:47:10.619Z,23.57
2023-02-21T13:50:37.611Z,23.64
2023-02-21T13:54:12.559Z,23.82
2023-02-21T13:57:35.704Z,21.35
2023-02-21T14:00:38.978Z,23.19
2023-02-21T14:03:41.762Z,23.99
2023-02-21T14:06:56.247Z,24.02
2023-02-21T14:09:59.817Z,21.01
2023-02-21T14:13:05.585Z,19.50
2023-02-21T14:16:08.160Z,18.67
2023-02-21T14:19:19.632Z,16.71
2023-02-21T14:22:28.586Z,16.40
2023-02-21T14:25:34.258Z,16.08
2023-02-21T14:28:59.012Z,15.84
2023-02-21T14:32:02.582Z,15.29
2023-02-21T14:35:20.604Z,15.67
2023-02-21T14:38:27.276Z,15.30
2023-02-21T14:41:35.530Z,16.59
2023-02-21T14:44:48.487Z,17.88
2023-02-21T14:48:30.709Z,18.47
2023-02-21T14:51:54.671Z,18.41
2023-02-21T14:55:15.439Z,17.60
2023-02-21T14:58:36.699Z,15.92
2023-02-21T15:01:46.188Z,15.63
2023-02-21T15:04:57.914Z,15.23
2023-02-21T15:08:16.278Z,15.29
2023-02-21T15:11:33.598Z,14.90
2023-02-21T15:14:51.142Z,14.95
2023-02-21T15:18:09.781Z,14.41
2023-02-21T15:21:12.351Z,14.44
2023-02-21T15:24:16.738Z,14.41
2023-02-21T15:27:19.158Z,14.17
2023-02-21T15:30:41.260Z,14.01
2023-02-21T15:33:44.395Z,13.98
2023-02-21T15:36:49.445Z,14.05
2023-02-21T15:40:19.570Z,13.99
2023-02-21T15:43:30.421Z,13.83
2023-02-21T15:46:42.024Z,13.68
2023-02-21T15:49:48.629Z,13.71
2023-02-21T15:52:53.432Z,13.61
2023-02-21T15:56:20.923Z,13.54
2023-02-21T15:59:28.170Z,13.47
2023-02-21T16:02:32.413Z,13.45
2023-02-21T16:05:36.202Z,13.27
2023-02-21T16:09:03.795Z,13.32
2023-02-21T16:12:12.064Z,13.22
2023-02-21T16:15:14.428Z,13.05
2023-02-21T16:18:18.913Z,12.89
2023-02-21T16:21:26.367Z,12.87
2023-02-21T16:24:32.308Z,12.82
2023-02-21T16:27:35.028Z,12.73
2023-02-21T16:30:39.488Z,12.72
2023-02-21T16:33:42.573Z,12.79
2023-02-21T16:36:45.432Z,12.88
2023-02-21T16:39:49.230Z,12.84
2023-02-21T16:42:53.408Z,12.90
2023-02-21T16:45:57.948Z,13.08
2023-02-21T16:49:00.674Z,12.99
2023-02-21T16:52:03.623Z,13.12
2023-02-21T16:55:06.656Z,13.15
2023-02-21T16:58:30.451Z,13.17
2023-02-21T17:01:34.766Z,13.13
2023-02-21T17:04:37.515Z,13.25
2023-02-21T17:07:40.315Z,13.23
2023-02-21T17:10:43.192Z,13.20
2023-02-21T17:13:45.819Z,13.24
2023-02-21T17:16:48.742Z,13.25
2023-02-21T17:19:51.222Z,13.23
2023-02-21T17:22:54.613Z,13.06
2023-02-21T17:25:57.401Z,13.11
2023-02-21T17:28:59.886Z,13.18
2023-02-21T17:32:07.113Z,13.20
2023-02-21T17:35:10.395Z,13.29
2023-02-21T17:38:14.411Z,13.27
2023-02-21T17:41:18.157Z,13.28
2023-02-21T17:44:21.136Z,13.33
2023-02-21T17:47:23.847Z,13.26
2023-02-21T17:50:26.789Z,13.19
2023-02-21T17:53:29.489Z,13.19
2023-02-21T17:56:32.169Z,13.08
2023-02-21T17:59:35.688Z,12.93
2023-02-21T18:02:38.330Z,13.00
2023-02-21T18:05:41.081Z,12.91
2023-02-21T18:08:47.422Z,12.81
2023-02-21T18:11:54.610Z,12.80
2023-02-21T18:14:57.277Z,12.64
2023-02-21T18:18:06.923Z,12.61
2023-02-21T18:21:11.378Z,12.58
2023-02-21T18:24:15.220Z,12.48
2023-02-21T18:27:17.954Z,12.43
2023-02-21T18:30:22.123Z,12.31
2023-02-21T18:33:27.284Z,12.31
2023-02-21T18:36:31.155Z,12.33
2023-02-21T18:39:33.939Z,12.35
2023-02-21T18:42:36.671Z,12.35
2023-02-21T18:45:40.519Z,12.29
2023-02-21T18:48:47.557Z,12.15
2023-02-21T18:51:50.868Z,12.09
2023-02-21T18:54:54.562Z,12.10
2023-02-21T18:57:57.701Z,12.13
2023-02-21T19:01:38.660Z,11.95
2023-02-21T19:04:43.139Z,12.04
2023-02-21T19:07:46.746Z,11.99
2023-02-21T19:10:51.211Z,11.81
2023-02-21T19:13:54.782Z,11.73
2023-02-21T19:16:57.865Z,11.62
2023-02-21T19:20:01.252Z,11.64
2023-02-21T19:23:04.129Z,11.47
2023-02-21T19:26:07.230Z,11.78
2023-02-21T19:29:11.155Z,11.53
2023-02-21T19:32:14.252Z,11.55
2023-02-21T19:35:17.354Z,11.65
2023-02-21T19:38:20.060Z,11.72
2023-02-21T19:41:23.108Z,11.77
2023-02-21T19:44:26.009Z,11.65
2023-02-21T19:47:29.684Z,11.69
2023-02-21T19:50:35.250Z,11.75
2023-02-21T19:53:37.989Z,11.68
2023-02-21T19:56:41.114Z,11.61
2023-02-21T19:59:46.971Z,11.43
2023-02-21T20:02:49.787Z,11.54
2023-02-21T20:05:55.720Z,11.45
2023-02-21T20:08:58.666Z,11.46
2023-02-21T20:12:02.412Z,11.28
2023-02-21T20:15:06.912Z,11.38
2023-02-21T20:18:09.507Z,11.28
2023-02-21T20:21:29.081Z,11.26
2023-02-21T20:24:31.742Z,11.21
2023-02-21T20:27:35.863Z,11.34
2023-02-21T20:30:40.885Z,11.31
2023-02-21T20:33:43.878Z,11.18
2023-02-21T20:36:47.884Z,11.10
2023-02-21T20:39:51.153Z,11.11
2023-02-21T20:42:54.625Z,11.04
2023-02-21T20:45:57.371Z,11.13
2023-02-21T20:49:02.030Z,10.82
2023-02-21T20:52:05.879Z,10.93
2023-02-21T20:55:09.702Z,10.82
2023-02-21T20:58:13.776Z,10.77
2023-02-21T21:01:17.438Z,10.76
2023-02-21T21:04:28.134Z,10.79
2023-02-21T21:07:31.341Z,10.74
2023-02-21T21:10:35.265Z,10.70
2023-02-21T21:13:37.764Z,10.60
2023-02-21T21:16:40.602Z,10.43
2023-02-21T21:19:46.486Z,10.39
2023-02-21T21:22:50.146Z,10.31
2023-02-21T21:25:52.890Z,10.14
2023-02-21T21:28:55.892Z,10.29
2023-02-21T21:31:59.923Z,9.99
2023-02-21T21:35:07.418Z,10.01
2023-02-21T21:38:10.608Z,9.90
2023-02-21T21:41:14.795Z,9.71
2023-02-21T21:44:17.651Z,9.59
2023-02-21T21:47:36.189Z,9.67
2023-02-21T21:50:39.372Z,9.62
2023-02-21T21:53:42.670Z,9.58
2023-02-21T21:56:45.831Z,9.60
2023-02-21T21:59:51.347Z,9.63
2023-02-21T22:02:57.665Z,9.73
2023-02-21T22:06:03.351Z,9.73
2023-02-21T22:09:07.467Z,9.69
2023-02-21T22:12:19.007Z,9.62
2023-02-21T22:15:24.604Z,9.56
2023-02-21T22:18:27.059Z,9.52
2023-02-21T22:21:29.954Z,9.64
2023-02-21T22:24:33.722Z,9.59
2023-02-21T22:27:36.153Z,9.65
2023-02-21T22:30:42.681Z,9.71
2023-02-21T22:33:46.249Z,9.82
2023-02-21T22:36:50.833Z,9.72
2023-02-21T22:39:54.277Z,9.72
2023-02-21T22:43:01.760Z,9.75
2023-02-21T22:46:07.668Z,9.73
2023-02-21T22:49:10.685Z,9.56
2023-02-21T22:52:13.309Z,9.35
2023-02-21T22:55:15.798Z,9.25
2023-02-21T22:58:20.597Z,9.18
2023-02-21T23:01:28.023Z,9.14
2023-02-21T23:04:37.493Z,9.14
2023-02-21T23:07:40.691Z,9.21
2023-02-21T23:10:46.626Z,9.26
2023-02-21T23:13:49.098Z,9.11
2023-02-21T23:16:57.758Z,8.96
2023-02-21T23:20:00.202Z,9.01
2023-02-21T23:23:02.818Z,9.14
2023-02-21T23:26:08.675Z,9.24
2023-02-21T23:29:18.242Z,9.24
2023-02-21T23:32:20.847Z,9.20
2023-02-21T23:35:23.694Z,9.13
2023-02-21T23:38:30.759Z,9.15
2023-02-21T23:41:34.410Z,9.14
2023-02-21T23:44:37.154Z,9.05
2023-02-21T23:47:43.890Z,9.01
2023-02-21T23:50:47.154Z,8.85
2023-02-21T23:53:49.546Z,8.72
2023-02-21T23:56:52.638Z,8.67
2023-02-21T23:59:55.126Z,8.69
